sensor_id;sensor_type;location;lat;lon;timestamp;pressure;altitude;pressure_sealevel;temperature;humidity
38806;BME280;25635;51.146;17.162;2023-08-01T00:02:25;99109.16;;;18.61;68.43
38806;BME280;25635;51.146;17.162;2023-08-01T00:04:52;99107.18;;;18.62;68.41
38806;BME280;25635;51.146;17.162;2023-08-01T00:07:17;99105.26;;;18.61;68.50
38806;BME280;25635;51.146;17.162;2023-08-01T00:09:43;99100.64;;;18.62;68.58
38806;BME280;25635;51.146;17.162;2023-08-01T00:12:09;99094.65;;;18.61;68.70
38806;BME280;25635;51.146;17.162;2023-08-01T00:14:36;99093.09;;;18.61;68.75
38806;BME280;25635;51.146;17.162;2023-08-01T00:17:02;99092.35;;;18.62;68.84
38806;BME280;25635;51.146;17.162;2023-08-01T00:19:28;99087.48;;;18.60;68.77
38806;BME280;25635;51.146;17.162;2023-08-01T00:21:54;99087.38;;;18.59;68.91
38806;BME280;25635;51.146;17.162;2023-08-01T00:24:20;99085.54;;;18.57;68.88
38806;BME280;25635;51.146;17.162;2023-08-01T00:26:46;99081.77;;;18.56;68.96
38806;BME280;25635;51.146;17.162;2023-08-01T00:29:13;99076.70;;;18.55;68.94
38806;BME280;25635;51.146;17.162;2023-08-01T00:31:39;99075.46;;;18.55;69.00
38806;BME280;25635;51.146;17.162;2023-08-01T00:34:05;99069.77;;;18.55;69.07
38806;BME280;25635;51.146;17.162;2023-08-01T00:36:31;99065.23;;;18.55;69.22
38806;BME280;25635;51.146;17.162;2023-08-01T00:38:57;99060.66;;;18.54;69.17
38806;BME280;25635;51.146;17.162;2023-08-01T00:41:23;99052.40;;;18.51;69.04
38806;BME280;25635;51.146;17.162;2023-08-01T00:43:49;99048.52;;;18.48;69.31
38806;BME280;25635;51.146;17.162;2023-08-01T00:46:15;99049.09;;;18.44;69.23
38806;BME280;25635;51.146;17.162;2023-08-01T00:48:41;99044.10;;;18.41;69.42
38806;BME280;25635;51.146;17.162;2023-08-01T00:51:07;99039.54;;;18.41;69.40
38806;BME280;25635;51.146;17.162;2023-08-01T00:53:35;99037.34;;;18.39;69.37
38806;BME280;25635;51.146;17.162;2023-08-01T00:56:02;99030.52;;;18.35;69.47
38806;BME280;25635;51.146;17.162;2023-08-01T00:58:29;99029.08;;;18.33;69.64
38806;BME280;25635;51.146;17.162;2023-08-01T01:00:55;99029.02;;;18.31;69.71
38806;BME280;25635;51.146;17.162;2023-08-01T01:03:25;99026.31;;;18.29;69.63
38806;BME280;25635;51.146;17.162;2023-08-01T01:08:23;99014.14;;;18.20;70.00
38806;BME280;25635;51.146;17.162;2023-08-01T01:10:49;99008.91;;;18.19;70.11
38806;BME280;25635;51.146;17.162;2023-08-01T01:13:15;99002.00;;;18.16;69.97
38806;BME280;25635;51.146;17.162;2023-08-01T01:15:41;98999.69;;;18.11;69.98
38806;BME280;25635;51.146;17.162;2023-08-01T01:18:07;98994.89;;;18.08;70.30
38806;BME280;25635;51.146;17.162;2023-08-01T01:20:36;98991.11;;;18.07;70.49
38806;BME280;25635;51.146;17.162;2023-08-01T01:23:04;98985.53;;;18.05;70.59
38806;BME280;25635;51.146;17.162;2023-08-01T01:25:32;98981.04;;;18.00;70.29
38806;BME280;25635;51.146;17.162;2023-08-01T01:27:59;98976.08;;;17.98;70.62
38806;BME280;25635;51.146;17.162;2023-08-01T01:30:27;98971.04;;;17.97;70.69
38806;BME280;25635;51.146;17.162;2023-08-01T01:32:54;98974.42;;;17.96;70.68
38806;BME280;25635;51.146;17.162;2023-08-01T01:35:21;98970.25;;;17.95;70.74
38806;BME280;25635;51.146;17.162;2023-08-01T01:37:47;98970.89;;;17.93;70.78
38806;BME280;25635;51.146;17.162;2023-08-01T01:40:13;98967.30;;;17.91;70.80
38806;BME280;25635;51.146;17.162;2023-08-01T01:42:39;98961.13;;;17.88;70.84
38806;BME280;25635;51.146;17.162;2023-08-01T01:45:05;98956.16;;;17.86;70.96
38806;BME280;25635;51.146;17.162;2023-08-01T01:47:31;98952.81;;;17.82;71.09
38806;BME280;25635;51.146;17.162;2023-08-01T01:49:57;98948.38;;;17.79;71.07
38806;BME280;25635;51.146;17.162;2023-08-01T01:52:23;98944.77;;;17.74;71.01
38806;BME280;25635;51.146;17.162;2023-08-01T01:54:49;98941.87;;;17.70;71.03
38806;BME280;25635;51.146;17.162;2023-08-01T01:57:15;98938.98;;;17.65;71.07
38806;BME280;25635;51.146;17.162;2023-08-01T01:59:41;98936.75;;;17.60;71.14
38806;BME280;25635;51.146;17.162;2023-08-01T02:02:07;98930.30;;;17.56;71.08
38806;BME280;25635;51.146;17.162;2023-08-01T02:04:33;98928.97;;;17.52;71.19
38806;BME280;25635;51.146;17.162;2023-08-01T02:07:02;98924.19;;;17.49;71.42
38806;BME280;25635;51.146;17.162;2023-08-01T02:09:29;98924.19;;;17.46;71.47
38806;BME280;25635;51.146;17.162;2023-08-01T02:11:55;98924.48;;;17.44;71.65
38806;BME280;25635;51.146;17.162;2023-08-01T02:14:21;98919.97;;;17.42;71.77
38806;BME280;25635;51.146;17.162;2023-08-01T02:16:47;98915.24;;;17.42;71.75
38806;BME280;25635;51.146;17.162;2023-08-01T02:19:12;98911.38;;;17.41;71.96
38806;BME280;25635;51.146;17.162;2023-08-01T02:21:38;98907.08;;;17.43;71.94
38806;BME280;25635;51.146;17.162;2023-08-01T02:24:04;98907.30;;;17.42;71.68
38806;BME280;25635;51.146;17.162;2023-08-01T02:26:30;98901.72;;;17.41;71.93
38806;BME280;25635;51.146;17.162;2023-08-01T02:28:56;98901.38;;;17.41;72.01
38806;BME280;25635;51.146;17.162;2023-08-01T02:31:22;98901.98;;;17.40;71.91
38806;BME280;25635;51.146;17.162;2023-08-01T02:33:48;98899.08;;;17.38;72.01
38806;BME280;25635;51.146;17.162;2023-08-01T02:36:15;98899.27;;;17.38;71.91
38806;BME280;25635;51.146;17.162;2023-08-01T02:38:41;98896.29;;;17.37;72.05
38806;BME280;25635;51.146;17.162;2023-08-01T02:41:07;98896.27;;;17.38;72.04
38806;BME280;25635;51.146;17.162;2023-08-01T02:43:33;98893.42;;;17.38;72.16
38806;BME280;25635;51.146;17.162;2023-08-01T02:46:02;98887.27;;;17.38;72.29
38806;BME280;25635;51.146;17.162;2023-08-01T02:48:28;98884.67;;;17.37;72.48
38806;BME280;25635;51.146;17.162;2023-08-01T02:50:54;98881.61;;;17.35;72.48
38806;BME280;25635;51.146;17.162;2023-08-01T02:53:20;98879.20;;;17.34;72.73
38806;BME280;25635;51.146;17.162;2023-08-01T02:55:45;98879.06;;;17.34;72.85
38806;BME280;25635;51.146;17.162;2023-08-01T02:58:14;98872.63;;;17.32;72.92
38806;BME280;25635;51.146;17.162;2023-08-01T03:00:40;98870.28;;;17.30;73.09
38806;BME280;25635;51.146;17.162;2023-08-01T03:03:07;98877.02;;;17.30;73.16
38806;BME280;25635;51.146;17.162;2023-08-01T03:05:35;98871.45;;;17.31;73.31
38806;BME280;25635;51.146;17.162;2023-08-01T03:08:04;98869.55;;;17.34;73.40
38806;BME280;25635;51.146;17.162;2023-08-01T03:10:30;98863.80;;;17.33;73.61
38806;BME280;25635;51.146;17.162;2023-08-01T03:12:56;98864.36;;;17.35;73.97
38806;BME280;25635;51.146;17.162;2023-08-01T03:15:22;98860.23;;;17.36;74.17
38806;BME280;25635;51.146;17.162;2023-08-01T03:17:48;98857.13;;;17.39;74.22
38806;BME280;25635;51.146;17.162;2023-08-01T03:20:14;98853.81;;;17.41;74.43
38806;BME280;25635;51.146;17.162;2023-08-01T03:22:40;98858.66;;;17.42;74.49
38806;BME280;25635;51.146;17.162;2023-08-01T03:25:07;98857.27;;;17.42;74.57
38806;BME280;25635;51.146;17.162;2023-08-01T03:27:34;98852.77;;;17.44;74.64
38806;BME280;25635;51.146;17.162;2023-08-01T03:30:00;98849.12;;;17.46;74.62
38806;BME280;25635;51.146;17.162;2023-08-01T03:32:27;98849.43;;;17.47;74.60
38806;BME280;25635;51.146;17.162;2023-08-01T03:34:53;98848.39;;;17.47;74.68
38806;BME280;25635;51.146;17.162;2023-08-01T03:37:19;98849.86;;;17.46;74.80
38806;BME280;25635;51.146;17.162;2023-08-01T03:39:45;98844.12;;;17.44;74.80
38806;BME280;25635;51.146;17.162;2023-08-01T03:42:11;98841.99;;;17.41;74.96
38806;BME280;25635;51.146;17.162;2023-08-01T03:44:37;98835.59;;;17.39;75.02
38806;BME280;25635;51.146;17.162;2023-08-01T03:47:03;98828.97;;;17.38;75.06
38806;BME280;25635;51.146;17.162;2023-08-01T03:49:30;98825.08;;;17.35;75.16
38806;BME280;25635;51.146;17.162;2023-08-01T03:51:55;98822.15;;;17.34;75.24
38806;BME280;25635;51.146;17.162;2023-08-01T03:54:22;98820.98;;;17.33;75.28
38806;BME280;25635;51.146;17.162;2023-08-01T03:56:47;98821.36;;;17.30;75.29
38806;BME280;25635;51.146;17.162;2023-08-01T03:59:14;98824.20;;;17.26;75.36
38806;BME280;25635;51.146;17.162;2023-08-01T04:01:41;98820.17;;;17.23;75.49
38806;BME280;25635;51.146;17.162;2023-08-01T04:04:08;98823.61;;;17.21;75.74
38806;BME280;25635;51.146;17.162;2023-08-01T04:06:34;98826.13;;;17.20;75.85
38806;BME280;25635;51.146;17.162;2023-08-01T04:09:00;98824.95;;;17.22;75.96
38806;BME280;25635;51.146;17.162;2023-08-01T04:11:26;98827.20;;;17.23;76.03
38806;BME280;25635;51.146;17.162;2023-08-01T04:13:53;98829.08;;;17.24;76.09
38806;BME280;25635;51.146;17.162;2023-08-01T04:16:19;98829.54;;;17.25;76.08
38806;BME280;25635;51.146;17.162;2023-08-01T04:18:45;98830.08;;;17.25;76.20
38806;BME280;25635;51.146;17.162;2023-08-01T04:21:13;98834.95;;;17.23;76.11
38806;BME280;25635;51.146;17.162;2023-08-01T04:23:40;98831.75;;;17.23;76.30
38806;BME280;25635;51.146;17.162;2023-08-01T04:26:07;98829.66;;;17.23;76.58
38806;BME280;25635;51.146;17.162;2023-08-01T04:28:35;98829.28;;;17.20;76.63
38806;BME280;25635;51.146;17.162;2023-08-01T04:31:01;98829.21;;;17.18;76.70
38806;BME280;25635;51.146;17.162;2023-08-01T04:33:27;98831.90;;;17.17;76.86
38806;BME280;25635;51.146;17.162;2023-08-01T04:35:53;98831.52;;;17.15;77.02
38806;BME280;25635;51.146;17.162;2023-08-01T04:38:19;98832.30;;;17.14;77.18
38806;BME280;25635;51.146;17.162;2023-08-01T04:40:45;98828.73;;;17.14;77.37
38806;BME280;25635;51.146;17.162;2023-08-01T04:43:11;98825.62;;;17.13;77.63
38806;BME280;25635;51.146;17.162;2023-08-01T04:45:38;98824.16;;;17.11;77.83
38806;BME280;25635;51.146;17.162;2023-08-01T04:48:04;98819.91;;;17.08;78.09
38806;BME280;25635;51.146;17.162;2023-08-01T04:50:30;98817.92;;;17.06;78.30
38806;BME280;25635;51.146;17.162;2023-08-01T04:52:56;98810.80;;;17.05;78.68
38806;BME280;25635;51.146;17.162;2023-08-01T04:55:22;98807.50;;;17.04;78.91
38806;BME280;25635;51.146;17.162;2023-08-01T04:57:48;98806.08;;;17.04;79.11
38806;BME280;25635;51.146;17.162;2023-08-01T05:00:19;98805.26;;;17.03;79.34
38806;BME280;25635;51.146;17.162;2023-08-01T05:02:48;98808.94;;;17.00;79.51
38806;BME280;25635;51.146;17.162;2023-08-01T05:05:17;98807.91;;;16.99;79.63
38806;BME280;25635;51.146;17.162;2023-08-01T05:07:43;98804.57;;;16.99;79.76
38806;BME280;25635;51.146;17.162;2023-08-01T05:10:11;98802.71;;;16.98;79.97
38806;BME280;25635;51.146;17.162;2023-08-01T05:12:37;98802.22;;;16.97;80.07
38806;BME280;25635;51.146;17.162;2023-08-01T05:15:04;98805.33;;;16.99;80.26
38806;BME280;25635;51.146;17.162;2023-08-01T05:17:30;98804.91;;;16.99;80.35
38806;BME280;25635;51.146;17.162;2023-08-01T05:19:56;98806.27;;;17.00;80.56
38806;BME280;25635;51.146;17.162;2023-08-01T05:22:22;98802.89;;;17.01;80.80
38806;BME280;25635;51.146;17.162;2023-08-01T05:24:48;98798.63;;;17.02;81.00
38806;BME280;25635;51.146;17.162;2023-08-01T05:27:14;98800.19;;;17.02;80.91
38806;BME280;25635;51.146;17.162;2023-08-01T05:29:43;98797.31;;;17.04;81.23
38806;BME280;25635;51.146;17.162;2023-08-01T05:32:09;98792.14;;;17.05;81.54
38806;BME280;25635;51.146;17.162;2023-08-01T05:34:35;98790.35;;;17.05;81.48
38806;BME280;25635;51.146;17.162;2023-08-01T05:37:01;98787.42;;;17.07;81.61
38806;BME280;25635;51.146;17.162;2023-08-01T05:39:27;98785.73;;;17.09;81.70
38806;BME280;25635;51.146;17.162;2023-08-01T05:41:55;98785.44;;;17.11;81.82
38806;BME280;25635;51.146;17.162;2023-08-01T05:44:21;98789.45;;;17.12;82.03
38806;BME280;25635;51.146;17.162;2023-08-01T05:46:51;98787.45;;;17.13;82.00
38806;BME280;25635;51.146;17.162;2023-08-01T05:49:17;98789.64;;;17.14;82.28
38806;BME280;25635;51.146;17.162;2023-08-01T05:51:43;98784.61;;;17.16;82.53
38806;BME280;25635;51.146;17.162;2023-08-01T05:54:09;98783.85;;;17.20;82.72
38806;BME280;25635;51.146;17.162;2023-08-01T05:56:35;98780.33;;;17.23;82.94
38806;BME280;25635;51.146;17.162;2023-08-01T05:59:01;98778.75;;;17.26;83.05
38806;BME280;25635;51.146;17.162;2023-08-01T06:01:30;98775.45;;;17.28;83.02
38806;BME280;25635;51.146;17.162;2023-08-01T06:03:56;98776.00;;;17.31;83.27
38806;BME280;25635;51.146;17.162;2023-08-01T06:06:22;98776.96;;;17.33;83.39
38806;BME280;25635;51.146;17.162;2023-08-01T06:08:48;98772.33;;;17.34;83.32
38806;BME280;25635;51.146;17.162;2023-08-01T06:11:15;98771.20;;;17.35;83.46
38806;BME280;25635;51.146;17.162;2023-08-01T06:13:42;98771.92;;;17.37;83.71
38806;BME280;25635;51.146;17.162;2023-08-01T06:16:08;98767.02;;;17.40;83.90
38806;BME280;25635;51.146;17.162;2023-08-01T06:18:34;98763.86;;;17.43;83.97
38806;BME280;25635;51.146;17.162;2023-08-01T06:21:00;98764.95;;;17.45;84.14
38806;BME280;25635;51.146;17.162;2023-08-01T06:23:27;98763.62;;;17.50;84.20
38806;BME280;25635;51.146;17.162;2023-08-01T06:25:56;98760.20;;;17.51;84.18
38806;BME280;25635;51.146;17.162;2023-08-01T06:28:21;98759.48;;;17.52;84.07
38806;BME280;25635;51.146;17.162;2023-08-01T06:30:47;98756.98;;;17.52;84.29
38806;BME280;25635;51.146;17.162;2023-08-01T06:33:13;98753.53;;;17.51;84.33
38806;BME280;25635;51.146;17.162;2023-08-01T06:35:40;98755.63;;;17.51;84.37
38806;BME280;25635;51.146;17.162;2023-08-01T06:38:06;98752.92;;;17.52;84.60
38806;BME280;25635;51.146;17.162;2023-08-01T06:40:32;98749.73;;;17.55;84.72
38806;BME280;25635;51.146;17.162;2023-08-01T06:42:58;98749.66;;;17.59;84.74
38806;BME280;25635;51.146;17.162;2023-08-01T06:45:24;98750.29;;;17.64;84.83
38806;BME280;25635;51.146;17.162;2023-08-01T06:47:51;98739.99;;;17.68;84.73
38806;BME280;25635;51.146;17.162;2023-08-01T06:50:17;98736.05;;;17.72;84.82
38806;BME280;25635;51.146;17.162;2023-08-01T06:52:43;98729.27;;;17.73;84.85
38806;BME280;25635;51.146;17.162;2023-08-01T06:55:09;98721.73;;;17.73;84.70
38806;BME280;25635;51.146;17.162;2023-08-01T06:57:35;98719.58;;;17.73;84.72
38806;BME280;25635;51.146;17.162;2023-08-01T07:00:01;98718.35;;;17.73;84.68
38806;BME280;25635;51.146;17.162;2023-08-01T07:02:28;98717.18;;;17.72;84.65
38806;BME280;25635;51.146;17.162;2023-08-01T07:04:55;98719.77;;;17.70;84.68
38806;BME280;25635;51.146;17.162;2023-08-01T07:07:20;98716.98;;;17.70;84.77
38806;BME280;25635;51.146;17.162;2023-08-01T07:09:47;98713.54;;;17.69;84.83
38806;BME280;25635;51.146;17.162;2023-08-01T07:12:12;98715.70;;;17.68;84.97
38806;BME280;25635;51.146;17.162;2023-08-01T07:14:38;98719.04;;;17.71;84.92
38806;BME280;25635;51.146;17.162;2023-08-01T07:17:04;98719.21;;;17.71;84.98
38806;BME280;25635;51.146;17.162;2023-08-01T07:19:30;98715.87;;;17.70;85.12
38806;BME280;25635;51.146;17.162;2023-08-01T07:21:56;98714.22;;;17.72;85.31
38806;BME280;25635;51.146;17.162;2023-08-01T07:24:22;98709.97;;;17.72;85.41
38806;BME280;25635;51.146;17.162;2023-08-01T07:26:51;98710.98;;;17.73;85.60
38806;BME280;25635;51.146;17.162;2023-08-01T07:29:17;98710.89;;;17.74;85.69
38806;BME280;25635;51.146;17.162;2023-08-01T07:31:43;98706.38;;;17.76;85.79
38806;BME280;25635;51.146;17.162;2023-08-01T07:34:09;98709.92;;;17.76;85.75
38806;BME280;25635;51.146;17.162;2023-08-01T07:36:35;98702.54;;;17.75;86.05
38806;BME280;25635;51.146;17.162;2023-08-01T07:39:01;98699.48;;;17.76;86.08
38806;BME280;25635;51.146;17.162;2023-08-01T07:41:27;98695.83;;;17.78;86.03
38806;BME280;25635;51.146;17.162;2023-08-01T07:43:56;98699.17;;;17.81;86.22
38806;BME280;25635;51.146;17.162;2023-08-01T07:46:22;98694.59;;;17.85;86.43
38806;BME280;25635;51.146;17.162;2023-08-01T07:48:48;98692.20;;;17.89;86.57
38806;BME280;25635;51.146;17.162;2023-08-01T07:51:15;98684.26;;;17.95;86.65
38806;BME280;25635;51.146;17.162;2023-08-01T07:53:41;98674.91;;;18.00;86.78
38806;BME280;25635;51.146;17.162;2023-08-01T07:56:07;98672.73;;;18.07;87.27
38806;BME280;25635;51.146;17.162;2023-08-01T07:58:34;98676.64;;;18.16;87.44
38806;BME280;25635;51.146;17.162;2023-08-01T08:01:05;98681.83;;;18.25;87.49
38806;BME280;25635;51.146;17.162;2023-08-01T08:03:31;98676.22;;;18.33;86.97
38806;BME280;25635;51.146;17.162;2023-08-01T08:05:58;98669.28;;;18.39;86.94
38806;BME280;25635;51.146;17.162;2023-08-01T08:08:24;98666.73;;;18.49;87.11
38806;BME280;25635;51.146;17.162;2023-08-01T08:10:50;98664.88;;;18.58;87.13
38806;BME280;25635;51.146;17.162;2023-08-01T08:13:16;98663.90;;;18.68;87.19
38806;BME280;25635;51.146;17.162;2023-08-01T08:15:43;98657.40;;;18.79;86.96
38806;BME280;25635;51.146;17.162;2023-08-01T08:18:09;98657.77;;;18.87;86.74
38806;BME280;25635;51.146;17.162;2023-08-01T08:20:42;98659.50;;;18.95;86.25
38806;BME280;25635;51.146;17.162;2023-08-01T08:23:09;98656.98;;;19.01;86.27
38806;BME280;25635;51.146;17.162;2023-08-01T08:25:35;98649.59;;;19.08;86.00
38806;BME280;25635;51.146;17.162;2023-08-01T08:28:01;98641.83;;;19.14;86.05
38806;BME280;25635;51.146;17.162;2023-08-01T08:30:27;98636.87;;;19.21;86.54
38806;BME280;25635;51.146;17.162;2023-08-01T08:32:53;98630.95;;;19.28;86.24
38806;BME280;25635;51.146;17.162;2023-08-01T08:35:19;98627.91;;;19.36;86.38
38806;BME280;25635;51.146;17.162;2023-08-01T08:37:45;98631.08;;;19.44;86.02
38806;BME280;25635;51.146;17.162;2023-08-01T08:40:12;98625.03;;;19.50;86.18
38806;BME280;25635;51.146;17.162;2023-08-01T08:42:39;98616.79;;;19.59;85.74
38806;BME280;25635;51.146;17.162;2023-08-01T08:45:06;98616.45;;;19.61;84.93
38806;BME280;25635;51.146;17.162;2023-08-01T08:47:36;98609.91;;;19.61;84.49
38806;BME280;25635;51.146;17.162;2023-08-01T08:50:04;98616.02;;;19.60;84.23
38806;BME280;25635;51.146;17.162;2023-08-01T08:52:31;98622.00;;;19.58;83.99
38806;BME280;25635;51.146;17.162;2023-08-01T08:54:57;98624.40;;;19.56;83.85
38806;BME280;25635;51.146;17.162;2023-08-01T08:57:24;98623.84;;;19.57;84.14
38806;BME280;25635;51.146;17.162;2023-08-01T08:59:51;98626.08;;;19.58;83.73
38806;BME280;25635;51.146;17.162;2023-08-01T09:02:17;98624.80;;;19.56;83.82
38806;BME280;25635;51.146;17.162;2023-08-01T09:04:44;98623.05;;;19.53;83.78
38806;BME280;25635;51.146;17.162;2023-08-01T09:07:10;98614.70;;;19.56;84.27
38806;BME280;25635;51.146;17.162;2023-08-01T09:09:40;98609.73;;;19.59;84.51
38806;BME280;25635;51.146;17.162;2023-08-01T09:12:07;98606.55;;;19.59;84.55
38806;BME280;25635;51.146;17.162;2023-08-01T09:14:35;98607.27;;;19.61;84.95
38806;BME280;25635;51.146;17.162;2023-08-01T09:17:08;98604.45;;;19.66;85.06
38806;BME280;25635;51.146;17.162;2023-08-01T09:19:35;98605.42;;;19.70;84.91
38806;BME280;25635;51.146;17.162;2023-08-01T09:22:02;98604.55;;;19.72;84.69
38806;BME280;25635;51.146;17.162;2023-08-01T09:24:30;98607.05;;;19.72;84.26
38806;BME280;25635;51.146;17.162;2023-08-01T09:27:02;98608.16;;;19.74;84.29
38806;BME280;25635;51.146;17.162;2023-08-01T09:29:30;98612.22;;;19.74;84.14
38806;BME280;25635;51.146;17.162;2023-08-01T09:31:59;98612.94;;;19.74;83.98
38806;BME280;25635;51.146;17.162;2023-08-01T09:34:27;98609.67;;;19.75;84.01
38806;BME280;25635;51.146;17.162;2023-08-01T09:36:58;98607.75;;;19.77;83.94
38806;BME280;25635;51.146;17.162;2023-08-01T09:39:25;98608.54;;;19.79;84.02
38806;BME280;25635;51.146;17.162;2023-08-01T09:41:58;98607.91;;;19.82;83.98
38806;BME280;25635;51.146;17.162;2023-08-01T09:44:28;98609.73;;;19.84;84.12
38806;BME280;25635;51.146;17.162;2023-08-01T09:47:03;98607.27;;;19.87;83.79
38806;BME280;25635;51.146;17.162;2023-08-01T09:49:30;98604.27;;;19.87;83.58
38806;BME280;25635;51.146;17.162;2023-08-01T09:51:57;98599.45;;;19.85;83.45
38806;BME280;25635;51.146;17.162;2023-08-01T09:54:24;98592.09;;;19.87;83.86
38806;BME280;25635;51.146;17.162;2023-08-01T09:56:52;98591.64;;;19.88;84.00
38806;BME280;25635;51.146;17.162;2023-08-01T09:59:21;98587.61;;;19.87;83.85
38806;BME280;25635;51.146;17.162;2023-08-01T10:01:48;98576.63;;;19.82;83.64
38806;BME280;25635;51.146;17.162;2023-08-01T10:04:21;98577.79;;;19.83;83.90
38806;BME280;25635;51.146;17.162;2023-08-01T10:06:54;98581.23;;;19.82;83.99
38806;BME280;25635;51.146;17.162;2023-08-01T10:09:22;98582.46;;;19.82;83.94
38806;BME280;25635;51.146;17.162;2023-08-01T10:11:49;98572.94;;;19.82;83.86
38806;BME280;25635;51.146;17.162;2023-08-01T10:14:19;98571.69;;;19.82;84.01
38806;BME280;25635;51.146;17.162;2023-08-01T10:16:46;98567.00;;;19.83;83.78
38806;BME280;25635;51.146;17.162;2023-08-01T10:19:13;98561.79;;;19.84;83.80
38806;BME280;25635;51.146;17.162;2023-08-01T10:21:41;98560.17;;;19.82;83.70
38806;BME280;25635;51.146;17.162;2023-08-01T10:24:09;98560.49;;;19.83;83.79
38806;BME280;25635;51.146;17.162;2023-08-01T10:26:36;98559.85;;;19.82;83.83
38806;BME280;25635;51.146;17.162;2023-08-01T10:29:03;98555.81;;;19.84;83.67
38806;BME280;25635;51.146;17.162;2023-08-01T10:31:29;98555.68;;;19.89;83.72
38806;BME280;25635;51.146;17.162;2023-08-01T10:34:04;98546.59;;;19.92;83.51
38806;BME280;25635;51.146;17.162;2023-08-01T10:36:31;98546.20;;;19.95;83.38
38806;BME280;25635;51.146;17.162;2023-08-01T10:39:00;98546.61;;;19.96;83.22
38806;BME280;25635;51.146;17.162;2023-08-01T10:41:30;98544.58;;;19.95;82.93
38806;BME280;25635;51.146;17.162;2023-08-01T10:44:15;98540.40;;;19.94;82.76
38806;BME280;25635;51.146;17.162;2023-08-01T10:49:20;98533.94;;;19.96;82.62
38806;BME280;25635;51.146;17.162;2023-08-01T10:51:47;98532.98;;;19.94;82.57
38806;BME280;25635;51.146;17.162;2023-08-01T10:54:21;98532.36;;;19.93;82.33
38806;BME280;25635;51.146;17.162;2023-08-01T10:56:58;98530.03;;;19.91;82.25
38806;BME280;25635;51.146;17.162;2023-08-01T10:59:24;98532.16;;;19.86;82.12
38806;BME280;25635;51.146;17.162;2023-08-01T11:01:52;98534.20;;;19.85;82.21
38806;BME280;25635;51.146;17.162;2023-08-01T11:04:20;98536.52;;;19.84;82.26
38806;BME280;25635;51.146;17.162;2023-08-01T11:06:52;98537.38;;;19.85;82.42
38806;BME280;25635;51.146;17.162;2023-08-01T11:09:22;98534.22;;;19.82;82.46
38806;BME280;25635;51.146;17.162;2023-08-01T11:11:50;98532.53;;;19.78;82.60
38806;BME280;25635;51.146;17.162;2023-08-01T11:14:20;98530.04;;;19.76;82.80
38806;BME280;25635;51.146;17.162;2023-08-01T11:16:47;98536.86;;;19.72;82.86
38806;BME280;25635;51.146;17.162;2023-08-01T11:19:22;98535.32;;;19.69;83.50
38806;BME280;25635;51.146;17.162;2023-08-01T11:21:49;98530.26;;;19.68;83.99
38806;BME280;25635;51.146;17.162;2023-08-01T11:24:17;98526.54;;;19.68;84.06
38806;BME280;25635;51.146;17.162;2023-08-01T11:26:45;98520.10;;;19.67;83.77
38806;BME280;25635;51.146;17.162;2023-08-01T11:29:12;98522.41;;;19.67;83.78
38806;BME280;25635;51.146;17.162;2023-08-01T11:31:40;98518.08;;;19.68;83.47
38806;BME280;25635;51.146;17.162;2023-08-01T11:34:09;98508.98;;;19.67;83.28
38806;BME280;25635;51.146;17.162;2023-08-01T11:36:36;98499.81;;;19.69;83.39
38806;BME280;25635;51.146;17.162;2023-08-01T11:39:05;98498.91;;;19.69;83.24
38806;BME280;25635;51.146;17.162;2023-08-01T11:41:32;98494.30;;;19.67;83.11
38806;BME280;25635;51.146;17.162;2023-08-01T11:44:02;98500.88;;;19.66;82.87
38806;BME280;25635;51.146;17.162;2023-08-01T11:46:33;98498.52;;;19.67;82.62
38806;BME280;25635;51.146;17.162;2023-08-01T11:48:59;98493.28;;;19.71;83.16
38806;BME280;25635;51.146;17.162;2023-08-01T11:51:28;98489.15;;;19.77;83.02
38806;BME280;25635;51.146;17.162;2023-08-01T11:54:02;98490.79;;;19.83;82.96
38806;BME280;25635;51.146;17.162;2023-08-01T11:56:32;98483.47;;;19.92;82.93
38806;BME280;25635;51.146;17.162;2023-08-01T11:59:07;98477.79;;;19.99;83.09
38806;BME280;25635;51.146;17.162;2023-08-01T12:01:38;98479.27;;;20.08;82.85
38806;BME280;25635;51.146;17.162;2023-08-01T12:04:04;98479.06;;;20.15;82.38
38806;BME280;25635;51.146;17.162;2023-08-01T12:06:32;98473.15;;;20.21;82.35
38806;BME280;25635;51.146;17.162;2023-08-01T12:09:08;98471.81;;;20.30;81.99
38806;BME280;25635;51.146;17.162;2023-08-01T12:11:34;98474.91;;;20.38;81.79
38806;BME280;25635;51.146;17.162;2023-08-01T12:16:29;98463.83;;;20.53;81.59
38806;BME280;25635;51.146;17.162;2023-08-01T12:18:56;98455.98;;;20.63;81.61
38806;BME280;25635;51.146;17.162;2023-08-01T12:21:23;98452.11;;;20.75;81.79
38806;BME280;25635;51.146;17.162;2023-08-01T12:23:49;98448.73;;;20.84;80.88
38806;BME280;25635;51.146;17.162;2023-08-01T12:26:15;98442.63;;;20.92;80.38
38806;BME280;25635;51.146;17.162;2023-08-01T12:28:41;98447.46;;;21.03;80.32
38806;BME280;25635;51.146;17.162;2023-08-01T12:31:07;98443.27;;;21.15;79.75
38806;BME280;25635;51.146;17.162;2023-08-01T12:33:33;98442.21;;;21.29;79.49
38806;BME280;25635;51.146;17.162;2023-08-01T12:35:59;98437.28;;;21.41;79.08
38806;BME280;25635;51.146;17.162;2023-08-01T12:38:26;98442.17;;;21.56;78.26
38806;BME280;25635;51.146;17.162;2023-08-01T12:40:52;98432.36;;;21.68;78.17
38806;BME280;25635;51.146;17.162;2023-08-01T12:43:18;98431.00;;;21.82;77.87
38806;BME280;25635;51.146;17.162;2023-08-01T12:45:46;98435.05;;;21.95;77.21
38806;BME280;25635;51.146;17.162;2023-08-01T12:48:13;98440.50;;;22.07;76.43
38806;BME280;25635;51.146;17.162;2023-08-01T12:50:44;98445.92;;;22.21;76.60
38806;BME280;25635;51.146;17.162;2023-08-01T12:53:13;98449.45;;;22.32;75.22
38806;BME280;25635;51.146;17.162;2023-08-01T12:55:39;98449.50;;;22.42;74.97
38806;BME280;25635;51.146;17.162;2023-08-01T12:58:06;98447.83;;;22.53;74.78